»·PEaware :: N433YE KMRY-KOAK

N433YE :: KMRY-KOAK

FLIGHT INFORMATION

Flight Status: Arrived
Operator: Privately registered:
United States
More flights under this callsign
Pilot: Jeremy H. (10741)
Aircraft: Diamond DA-62
(DA62)
More flights by this aircraft type
Origin: KMRY Monterey Peninsula
United States
Destination: KOAK Metro Oakland Intl
United States
More flights between these airports :: More routes between these airports
Route: +MRY4 SNS V111 V301 SUNOL
File this flight plan on PilotEdge
Remarks:
Altitude:
(Current/Filed)
8,000ft
Speed:
(Current/Filed)
181kts
Departed: 06-Aug-18 06:03 PM
Arrived: 06-Aug-18 06:47 PM
Distance/Time
Traveled:
71nm/0:44
Distance/Time
To Go:
Arrived

Flight Plot

Page will automatically refresh every two minutes.

Flight plan parsing failed; only flown route is shown


Map Options




Map Legend


Flown Route
Filed Route
Departure Airport
Arrival Airport
Navaid (VOR, NDB)
Fix

Horizontal Profiles

Position Reports

Time Latitude Longitude Heading Altitude Ground
Speed
06-Aug-18 17:41 36.591883 -121.849880 167 150ft 0kts
06-Aug-18 17:42 36.591883 -121.849880 167 150ft 0kts
06-Aug-18 17:43 36.591883 -121.849880 167 150ft 0kts
06-Aug-18 17:44 36.591883 -121.849880 167 150ft 0kts
06-Aug-18 17:45 36.591883 -121.849880 167 150ft 0kts
06-Aug-18 17:46 36.591883 -121.849880 167 150ft 0kts
06-Aug-18 17:47 36.591883 -121.849880 167 150ft 0kts
06-Aug-18 17:48 36.591883 -121.849880 167 150ft 0kts
06-Aug-18 17:49 36.591883 -121.849880 167 150ft 0kts
06-Aug-18 17:50 36.591883 -121.849880 167 150ft 0kts
06-Aug-18 17:51 36.591883 -121.849880 167 150ft 0kts
06-Aug-18 17:52 36.591883 -121.849880 167 150ft 0kts
06-Aug-18 17:53 36.591882 -121.849880 167 150ft 0kts
06-Aug-18 17:54 36.591882 -121.849880 167 150ft 0kts
06-Aug-18 17:55 36.591882 -121.849880 167 150ft 0kts
06-Aug-18 17:56 36.591882 -121.849880 167 150ft 0kts
06-Aug-18 17:57 36.591882 -121.849880 167 150ft 0kts
06-Aug-18 17:58 36.591882 -121.849880 167 150ft 0kts
06-Aug-18 17:59 36.591084 -121.851325 257 155ft 17kts
06-Aug-18 18:00 36.589553 -121.849290 113 166ft 17kts
06-Aug-18 18:01 36.587431 -121.843040 112 201ft 18kts
06-Aug-18 18:02 36.586810 -121.841394 152 217ft 0kts
06-Aug-18 18:03 36.586183 -121.842023 293 219ft 35kts
06-Aug-18 18:04 36.594290 -121.869103 302 1290ft 87kts
06-Aug-18 18:05 36.616078 -121.879842 342 2790ft 87kts
06-Aug-18 18:06 36.639077 -121.888014 342 4257ft 87kts
06-Aug-18 18:07 36.660204 -121.883199 76 5694ft 101kts
06-Aug-18 18:08 36.657275 -121.847520 89 7114ft 106kts
06-Aug-18 18:09 36.657886 -121.807432 84 8015ft 150kts
06-Aug-18 18:10 36.659542 -121.747147 84 8028ft 186kts
06-Aug-18 18:11 36.661541 -121.681414 84 8020ft 191kts
06-Aug-18 18:12 36.663721 -121.614846 76 8007ft 191kts
06-Aug-18 18:13 36.702904 -121.577799 24 8012ft 180kts
06-Aug-18 18:14 36.747318 -121.548065 23 8003ft 182kts
06-Aug-18 18:15 36.792066 -121.518392 23 7991ft 184kts
06-Aug-18 18:16 36.837349 -121.488365 24 7981ft 185kts
06-Aug-18 18:17 36.882737 -121.458225 24 7976ft 186kts
06-Aug-18 18:18 36.928465 -121.427817 24 7973ft 186kts
06-Aug-18 18:19 36.974127 -121.397423 24 7973ft 186kts
06-Aug-18 18:20 37.019438 -121.367231 24 7972ft 184kts
06-Aug-18 18:21 37.064360 -121.337247 26 7971ft 183kts
06-Aug-18 18:22 37.108664 -121.307632 26 7972ft 182kts
06-Aug-18 18:23 37.154555 -121.287952 330 7963ft 179kts
06-Aug-18 18:24 37.192771 -121.328088 318 7967ft 180kts
06-Aug-18 18:25 37.229722 -121.370586 318 7971ft 180kts
06-Aug-18 18:26 37.266362 -121.413144 318 7981ft 180kts
06-Aug-18 18:27 37.303111 -121.455921 319 7991ft 180kts
06-Aug-18 18:28 37.339036 -121.497786 319 7990ft 174kts
06-Aug-18 18:29 37.374498 -121.539160 319 7991ft 174kts
06-Aug-18 18:30 37.407564 -121.583601 311 7991ft 174kts
06-Aug-18 18:31 37.437452 -121.630782 310 7052ft 171kts
06-Aug-18 18:32 37.466646 -121.677186 310 6060ft 167kts
06-Aug-18 18:33 37.493178 -121.719478 309 5986ft 149kts
06-Aug-18 18:34 37.518854 -121.760440 309 5983ft 147kts
06-Aug-18 18:35 37.543962 -121.800572 308 5962ft 145kts
06-Aug-18 18:36 37.569301 -121.841067 307 5379ft 140kts
06-Aug-18 18:37 37.594134 -121.875260 312 5099ft 133kts
06-Aug-18 18:38 37.620369 -121.910169 310 4501ft 140kts
06-Aug-18 18:39 37.641429 -121.948409 291 4167ft 125kts
06-Aug-18 18:40 37.653275 -121.984547 290 3534ft 108kts
06-Aug-18 18:41 37.663669 -122.016414 291 3340ft 97kts
06-Aug-18 18:42 37.675425 -122.053076 289 2224ft 115kts
06-Aug-18 18:43 37.686939 -122.088404 291 1526ft 89kts
06-Aug-18 18:44 37.696130 -122.116021 290 1427ft 88kts
06-Aug-18 18:45 37.705792 -122.145807 290 973ft 93kts
06-Aug-18 18:46 37.715594 -122.176104 290 498ft 92kts
06-Aug-18 18:47 37.724998 -122.205218 289 30ft 79kts
06-Aug-18 18:48 37.730004 -122.218733 60 7ft 12kts
06-Aug-18 18:49 37.730595 -122.215513 121 7ft 21kts
06-Aug-18 18:50 37.729169 -122.210123 93 7ft 15kts
06-Aug-18 18:51 37.729349 -122.210187 217 7ft 0kts

Navigation Log

Ident Type
Flight plan parsing failed, navigation log unavailable